Sycamore, Illinois
Current Conditions -  °F | °C
As of 7:15 AM on Friday 31 Oct 2014 (Local Time) from KDKB Reporting Station
Light Snow Light Snow  
Wind Chill: 21°   Ceiling: 2200
Heat Index: 32°   Visibility: 7mi
Dew Point: 28°   Wind: 17mph
Humidity: 87%   Direction: 330°NNW
Pressure: 30.14"   Gusts: 25mph
Location:  41.99°N, 88.68°W
Report Text: KDKB 311215Z AUTO 33015G22KT 7SM -SN SCT016 BKN022 OVC029 00/M02 A3014 RMK AO2 T00001020
Loading
Personal Weather Stations






























Interactive Weather Map New forecast layout! Learn more

10-Day Weather Forecast

Advertisements
Track Severe Weather on mobile